createdAt,value
2022-12-17T00:02:34.253Z,82.78
2022-12-17T00:05:55.993Z,82.92
2022-12-17T00:09:17.408Z,83.13
2022-12-17T00:12:38.320Z,83.13
2022-12-17T00:15:59.302Z,82.98
2022-12-17T00:19:19.970Z,83.18
2022-12-17T00:22:40.800Z,82.92
2022-12-17T00:26:01.601Z,82.08
2022-12-17T00:29:25.265Z,81.68
2022-12-17T00:32:58.894Z,81.94
2022-12-17T00:36:21.218Z,82.31
2022-12-17T00:39:42.191Z,83.14
2022-12-17T00:43:06.672Z,82.85
2022-12-17T00:46:27.480Z,82.01
2022-12-17T00:49:48.226Z,81.84
2022-12-17T00:53:11.645Z,81.87
2022-12-17T00:56:32.980Z,81.37
2022-12-17T00:59:53.911Z,81.34
2022-12-17T01:03:29.925Z,80.59
2022-12-17T01:06:50.836Z,80.01
2022-12-17T01:10:13.887Z,79.35
2022-12-17T01:13:36.395Z,78.64
2022-12-17T01:16:57.423Z,78.92
2022-12-17T01:20:18.158Z,78.16
2022-12-17T01:23:39.756Z,78.50
2022-12-17T01:27:01.500Z,79.14
2022-12-17T01:30:22.737Z,79.85
2022-12-17T01:33:43.460Z,79.34
2022-12-17T01:37:04.397Z,79.79
2022-12-17T01:40:25.725Z,79.46
2022-12-17T01:44:15.196Z,79.69
2022-12-17T01:47:37.094Z,78.83
2022-12-17T01:51:03.282Z,79.25
2022-12-17T01:54:24.471Z,78.11
2022-12-17T01:57:45.972Z,77.38
2022-12-17T02:01:06.878Z,77.44
2022-12-17T02:04:29.444Z,77.72
2022-12-17T02:08:05.133Z,77.37
2022-12-17T02:11:48.141Z,77.26
2022-12-17T02:15:17.977Z,78.37
2022-12-17T02:18:47.058Z,78.69
2022-12-17T02:22:16.495Z,78.70
2022-12-17T02:25:55.322Z,79.19
2022-12-17T02:29:17.483Z,78.61
2022-12-17T02:32:40.819Z,78.22
2022-12-17T02:36:06.160Z,78.19
2022-12-17T02:39:26.808Z,78.40
2022-12-17T02:42:49.776Z,76.85
2022-12-17T02:46:11.161Z,77.08
2022-12-17T02:49:32.388Z,76.85
2022-12-17T02:52:59.780Z,76.37
2022-12-17T02:56:24.323Z,76.59
2022-12-17T02:59:45.089Z,76.92
2022-12-17T03:03:10.714Z,76.28
2022-12-17T03:06:40.332Z,77.81
2022-12-17T03:10:00.782Z,77.15
2022-12-17T03:13:22.881Z,77.70
2022-12-17T03:16:43.744Z,77.34
2022-12-17T03:20:04.393Z,77.34
2022-12-17T03:23:28.288Z,77.18
2022-12-17T03:26:49.946Z,77.89
2022-12-17T03:30:14.315Z,78.11
2022-12-17T03:33:37.308Z,76.65
2022-12-17T03:36:58.915Z,76.30
2022-12-17T03:40:19.873Z,76.95
2022-12-17T03:43:41.258Z,76.12
2022-12-17T03:47:02.078Z,75.70
2022-12-17T03:50:23.923Z,75.56
2022-12-17T03:53:46.276Z,76.53
2022-12-17T03:57:11.739Z,76.72
2022-12-17T04:00:35.749Z,76.70
2022-12-17T04:03:56.223Z,76.81
2022-12-17T04:07:18.152Z,76.58
2022-12-17T04:10:44.157Z,76.54
2022-12-17T04:14:05.819Z,76.15
2022-12-17T04:17:26.959Z,75.65
2022-12-17T04:20:48.385Z,75.99
2022-12-17T04:24:10.664Z,74.97
2022-12-17T04:27:31.478Z,75.71
2022-12-17T04:30:52.666Z,75.20
2022-12-17T04:34:14.166Z,75.07
2022-12-17T04:37:35.188Z,75.66
2022-12-17T04:40:57.001Z,75.50
2022-12-17T04:44:17.552Z,76.49
2022-12-17T04:47:38.583Z,76.41
2022-12-17T04:50:59.372Z,76.58
2022-12-17T04:54:20.168Z,76.70
2022-12-17T04:57:41.088Z,76.43
2022-12-17T05:01:01.988Z,76.66
2022-12-17T05:04:22.755Z,76.10
2022-12-17T05:07:43.680Z,75.82
2022-12-17T05:11:24.445Z,76.14
2022-12-17T05:14:45.382Z,74.07
2022-12-17T05:18:06.125Z,72.44
2022-12-17T05:21:30.536Z,71.70
2022-12-17T05:24:54.811Z,71.88
2022-12-17T05:28:15.889Z,69.96
2022-12-17T05:31:37.861Z,69.15
2022-12-17T05:34:59.095Z,69.74
2022-12-17T05:38:27.969Z,70.07
2022-12-17T05:41:48.421Z,73.91
2022-12-17T05:45:09.599Z,76.14
2022-12-17T05:48:30.207Z,82.07
2022-12-17T05:51:50.894Z,81.79
2022-12-17T05:55:11.501Z,85.37
2022-12-17T05:58:32.335Z,86.01
2022-12-17T06:01:53.467Z,87.45
2022-12-17T06:05:15.204Z,87.51
2022-12-17T06:08:35.741Z,89.13
2022-12-17T06:12:02.356Z,93.32
2022-12-17T06:15:24.630Z,90.67
2022-12-17T06:18:45.500Z,85.46
2022-12-17T06:22:06.123Z,82.19
2022-12-17T06:25:27.329Z,80.53
2022-12-17T06:29:02.639Z,79.06
2022-12-17T06:32:25.518Z,78.09
2022-12-17T06:35:46.517Z,81.38
2022-12-17T06:39:07.219Z,81.99
2022-12-17T06:42:27.797Z,81.57
2022-12-17T06:45:48.283Z,79.80
2022-12-17T06:49:09.047Z,75.15
2022-12-17T06:52:29.615Z,73.89
2022-12-17T06:55:51.521Z,75.56
2022-12-17T06:59:12.896Z,74.18
2022-12-17T07:02:34.239Z,73.93
2022-12-17T07:05:55.188Z,75.91
2022-12-17T07:09:16.005Z,77.57
2022-12-17T07:12:37.042Z,76.82
2022-12-17T07:15:58.590Z,76.95
2022-12-17T07:19:23.860Z,81.84
2022-12-17T07:22:47.755Z,81.43
2022-12-17T07:26:08.493Z,81.40
2022-12-17T07:29:30.546Z,82.75
2022-12-17T07:32:51.363Z,81.72
2022-12-17T07:36:13.883Z,81.29
2022-12-17T07:39:34.612Z,80.79
2022-12-17T07:42:55.409Z,80.32
2022-12-17T07:46:16.286Z,80.27
2022-12-17T07:49:47.568Z,78.54
2022-12-17T07:53:17.791Z,77.72
2022-12-17T07:56:38.362Z,78.13
2022-12-17T07:59:59.445Z,77.48
2022-12-17T08:03:20.432Z,76.83
2022-12-17T08:06:43.093Z,77.27
2022-12-17T08:10:03.958Z,81.99
2022-12-17T08:13:25.320Z,80.99
2022-12-17T08:16:46.293Z,78.04
2022-12-17T08:20:07.475Z,77.84
2022-12-17T08:23:28.199Z,77.50
2022-12-17T08:26:51.580Z,76.50
2022-12-17T08:30:12.470Z,75.44
2022-12-17T08:33:33.434Z,78.30
2022-12-17T08:36:54.578Z,83.54
2022-12-17T08:40:15.413Z,88.02
2022-12-17T08:43:37.550Z,90.21
2022-12-17T08:46:58.861Z,80.13
2022-12-17T08:50:19.675Z,70.68
2022-12-17T08:53:40.909Z,67.55
2022-12-17T08:57:01.982Z,63.30
2022-12-17T09:00:25.371Z,59.46
2022-12-17T09:03:45.911Z,53.61
2022-12-17T09:07:09.177Z,50.33
2022-12-17T09:10:30.332Z,46.72
2022-12-17T09:13:51.237Z,45.92
2022-12-17T09:17:13.070Z,47.42
2022-12-17T09:20:35.137Z,47.91
2022-12-17T09:23:57.326Z,47.55
2022-12-17T09:27:18.800Z,47.69
2022-12-17T09:30:59.933Z,47.24
2022-12-17T09:34:21.617Z,47.09
2022-12-17T09:37:42.698Z,47.37
2022-12-17T09:41:06.709Z,51.30
2022-12-17T09:44:38.160Z,53.94
2022-12-17T09:48:26.890Z,59.88
2022-12-17T09:51:53.279Z,62.64
2022-12-17T09:55:13.835Z,64.94
2022-12-17T09:58:41.510Z,67.25
2022-12-17T10:02:03.285Z,73.58
2022-12-17T10:05:29.949Z,80.74
2022-12-17T10:08:50.755Z,83.63
2022-12-17T10:12:11.591Z,88.22
2022-12-17T10:15:34.530Z,90.95
2022-12-17T10:19:02.311Z,93.39
2022-12-17T10:22:29.342Z,94.22
2022-12-17T10:25:50.041Z,98.20
2022-12-17T10:29:20.449Z,97.84
2022-12-17T10:32:45.068Z,97.28
2022-12-17T10:36:05.906Z,95.43
2022-12-17T10:39:37.495Z,92.91
2022-12-17T10:42:59.005Z,91.59
2022-12-17T10:46:19.874Z,90.60
2022-12-17T10:49:42.938Z,89.39
2022-12-17T10:53:05.940Z,88.22
2022-12-17T10:56:40.401Z,87.11
2022-12-17T11:00:02.105Z,85.34
2022-12-17T11:03:22.859Z,85.95
2022-12-17T11:06:49.921Z,84.36
2022-12-17T11:10:15.124Z,82.75
2022-12-17T11:13:56.285Z,81.89
2022-12-17T11:17:22.235Z,81.91
2022-12-17T11:20:53.420Z,80.57
2022-12-17T11:24:22.426Z,80.30
2022-12-17T11:27:48.936Z,79.25
2022-12-17T11:31:35.387Z,80.46
2022-12-17T11:35:23.970Z,80.42
2022-12-17T11:38:58.107Z,79.58
2022-12-17T11:42:20.977Z,78.81
2022-12-17T11:45:55.010Z,79.06
2022-12-17T11:49:30.982Z,78.07
2022-12-17T11:53:09.034Z,78.30
2022-12-17T11:56:57.692Z,82.30
2022-12-17T12:00:39.506Z,85.23
2022-12-17T12:04:43.056Z,93.65
2022-12-17T12:08:16.680Z,89.57
2022-12-17T12:11:57.275Z,86.24
2022-12-17T12:15:20.854Z,83.29
2022-12-17T12:19:19.950Z,82.23
2022-12-17T12:22:52.714Z,82.30
2022-12-17T12:26:40.247Z,81.98
2022-12-17T12:30:22.447Z,81.94
2022-12-17T12:34:09.135Z,81.66
2022-12-17T12:37:34.274Z,81.58
2022-12-17T12:41:01.811Z,81.12
2022-12-17T12:44:34.985Z,81.32
2022-12-17T12:48:01.339Z,82.17
2022-12-17T12:51:48.750Z,82.72
2022-12-17T12:55:13.241Z,83.14
2022-12-17T12:58:49.110Z,83.87
2022-12-17T13:02:13.748Z,80.42
2022-12-17T13:05:37.463Z,80.57
2022-12-17T13:08:41.161Z,79.60
2022-12-17T13:11:55.202Z,80.12
2022-12-17T13:15:17.313Z,79.52
2022-12-17T13:18:40.601Z,80.17
2022-12-17T13:21:44.252Z,80.51
2022-12-17T13:24:49.261Z,81.12
2022-12-17T13:27:51.666Z,79.54
2022-12-17T13:31:06.390Z,81.98
2022-12-17T13:34:28.092Z,83.54
2022-12-17T13:38:24.914Z,82.05
2022-12-17T13:41:31.041Z,82.26
2022-12-17T13:44:44.056Z,84.48
2022-12-17T13:47:54.387Z,86.30
2022-12-17T13:51:00.357Z,86.96
2022-12-17T13:54:04.956Z,86.30
2022-12-17T13:57:16.665Z,85.38
2022-12-17T14:00:25.300Z,87.29
2022-12-17T14:04:05.945Z,86.80
2022-12-17T14:07:04.777Z,87.15
2022-12-17T14:10:17.695Z,87.11
2022-12-17T14:13:21.177Z,87.10
2022-12-17T14:16:26.105Z,86.39
2022-12-17T14:19:31.000Z,86.88
2022-12-17T14:22:40.234Z,86.76
2022-12-17T14:26:15.742Z,86.53
2022-12-17T14:29:29.150Z,87.16
2022-12-17T14:32:36.789Z,87.06
2022-12-17T14:35:40.799Z,86.23
2022-12-17T14:38:58.155Z,86.34
2022-12-17T14:42:31.407Z,86.44
2022-12-17T14:45:53.739Z,86.90
2022-12-17T14:49:03.221Z,86.13
2022-12-17T14:52:17.843Z,86.52
2022-12-17T14:55:34.467Z,87.64
2022-12-17T14:58:54.209Z,87.63
2022-12-17T15:02:01.586Z,87.84
2022-12-17T15:05:04.979Z,87.83
2022-12-17T15:08:09.208Z,88.18
2022-12-17T15:11:13.137Z,87.36
2022-12-17T15:14:20.151Z,87.08
2022-12-17T15:17:22.348Z,87.06
2022-12-17T15:20:24.497Z,87.75
2022-12-17T15:23:31.851Z,87.95
2022-12-17T15:27:00.958Z,88.14
2022-12-17T15:30:03.232Z,87.55
2022-12-17T15:33:06.725Z,87.74
2022-12-17T15:36:11.547Z,88.00
2022-12-17T15:39:13.694Z,87.64
2022-12-17T15:43:05.833Z,87.22
2022-12-17T15:46:39.971Z,86.72
2022-12-17T15:49:46.331Z,86.11
2022-12-17T15:52:51.617Z,85.80
2022-12-17T15:56:06.313Z,85.16
2022-12-17T15:59:20.289Z,84.14
2022-12-17T16:02:43.148Z,82.06
2022-12-17T16:06:27.806Z,80.70
2022-12-17T16:09:30.163Z,81.19
2022-12-17T16:12:33.917Z,76.88
2022-12-17T16:15:36.450Z,79.76
2022-12-17T16:18:39.471Z,83.13
2022-12-17T16:21:46.672Z,86.01
2022-12-17T16:24:50.476Z,86.66
2022-12-17T16:27:52.656Z,87.31
2022-12-17T16:31:10.758Z,88.23
2022-12-17T16:34:15.035Z,84.61
2022-12-17T16:37:18.311Z,83.17
2022-12-17T16:40:21.992Z,82.80
2022-12-17T16:43:25.394Z,79.10
2022-12-17T16:46:31.730Z,81.89
2022-12-17T16:49:34.100Z,83.12
2022-12-17T16:52:37.943Z,83.48
2022-12-17T16:55:47.025Z,84.56
2022-12-17T16:58:49.705Z,84.06
2022-12-17T17:01:52.836Z,85.29
2022-12-17T17:04:55.148Z,85.60
2022-12-17T17:08:00.642Z,84.61
2022-12-17T17:11:19.454Z,84.72
2022-12-17T17:14:21.699Z,84.60
2022-12-17T17:17:54.085Z,85.55
2022-12-17T17:20:50.740Z,84.99
2022-12-17T17:23:57.298Z,85.29
2022-12-17T17:26:59.460Z,85.99
2022-12-17T17:30:03.840Z,85.76
2022-12-17T17:33:06.531Z,84.67
2022-12-17T17:36:14.353Z,84.55
2022-12-17T17:39:17.702Z,85.43
2022-12-17T17:42:19.863Z,84.35
2022-12-17T17:45:22.857Z,84.27
2022-12-17T17:48:27.084Z,83.25
2022-12-17T17:52:07.316Z,83.19
2022-12-17T17:54:58.095Z,82.34
2022-12-17T17:58:00.323Z,82.17
2022-12-17T18:01:13.855Z,81.77
2022-12-17T18:04:21.051Z,81.33
2022-12-17T18:07:26.398Z,79.67
2022-12-17T18:10:29.795Z,78.00
2022-12-17T18:13:51.298Z,78.36
2022-12-17T18:16:55.260Z,77.45
2022-12-17T18:19:57.366Z,77.54
2022-12-17T18:22:59.550Z,78.18
2022-12-17T18:26:10.091Z,81.46
2022-12-17T18:29:16.841Z,83.48
2022-12-17T18:32:18.841Z,85.01
2022-12-17T18:35:22.064Z,85.09
2022-12-17T18:38:25.273Z,85.15
2022-12-17T18:41:46.939Z,85.56
2022-12-17T18:44:49.300Z,84.47
2022-12-17T18:47:52.303Z,85.01
2022-12-17T18:50:55.414Z,84.21
2022-12-17T18:54:07.539Z,83.64
2022-12-17T18:57:45.433Z,84.78
2022-12-17T19:00:47.619Z,85.12
2022-12-17T19:03:53.102Z,86.32
2022-12-17T19:06:55.363Z,85.86
2022-12-17T19:10:02.803Z,83.17
2022-12-17T19:13:06.250Z,80.55
2022-12-17T19:16:11.898Z,81.68
2022-12-17T19:19:18.260Z,82.37
2022-12-17T19:27:31.260Z,90.43
2022-12-17T19:30:47.880Z,87.87
2022-12-17T19:33:57.740Z,83.46
2022-12-17T19:37:25.449Z,83.14
2022-12-17T19:40:41.642Z,81.74
2022-12-17T19:47:35.085Z,79.24
2022-12-17T19:54:04.759Z,77.98
2022-12-17T19:57:11.807Z,77.02
2022-12-17T20:00:37.281Z,76.24
2022-12-17T20:03:46.603Z,75.43
2022-12-17T20:07:10.208Z,74.80
2022-12-17T20:10:27.077Z,81.19
2022-12-17T20:13:31.099Z,84.54
2022-12-17T20:16:39.219Z,83.52
2022-12-17T20:19:43.828Z,82.18
2022-12-17T20:22:51.727Z,80.04
2022-12-17T20:26:13.947Z,83.39
2022-12-17T20:29:23.327Z,84.61
2022-12-17T20:32:32.437Z,74.22
2022-12-17T20:35:42.388Z,69.41
2022-12-17T20:38:47.822Z,65.08
2022-12-17T20:41:57.620Z,61.63
2022-12-17T20:44:59.957Z,46.83
2022-12-17T20:48:05.374Z,41.83
2022-12-17T20:51:10.114Z,41.99
2022-12-17T20:54:16.114Z,46.69
2022-12-17T20:57:23.270Z,54.14
2022-12-17T21:00:38.954Z,50.36
2022-12-17T21:03:45.957Z,48.99
2022-12-17T21:06:50.289Z,47.63
2022-12-17T21:09:54.673Z,46.67
2022-12-17T21:13:19.711Z,45.81
2022-12-17T21:16:41.849Z,43.35
2022-12-17T21:19:47.140Z,45.62
2022-12-17T21:22:51.683Z,52.03
2022-12-17T21:26:08.808Z,56.20
2022-12-17T21:29:14.837Z,59.50
2022-12-17T21:32:16.945Z,61.47
2022-12-17T21:35:19.240Z,64.14
2022-12-17T21:38:21.403Z,63.87
2022-12-17T21:41:26.753Z,64.61
2022-12-17T21:44:28.764Z,64.92
2022-12-17T21:47:33.887Z,65.52
2022-12-17T21:50:40.794Z,65.19
2022-12-17T21:53:43.858Z,66.18
2022-12-17T21:56:45.949Z,65.18
2022-12-17T21:59:48.116Z,65.26
2022-12-17T22:02:51.130Z,65.32
2022-12-17T22:05:53.411Z,65.48
2022-12-17T22:09:01.505Z,64.79
2022-12-17T22:12:31.168Z,65.08
2022-12-17T22:15:34.479Z,64.37
2022-12-17T22:18:45.339Z,63.14
2022-12-17T22:21:49.357Z,65.04
2022-12-17T22:24:51.885Z,64.79
2022-12-17T22:27:54.232Z,65.46
2022-12-17T22:31:15.272Z,65.56
2022-12-17T22:34:58.080Z,67.28
2022-12-17T22:39:34.915Z,67.26
2022-12-17T22:44:36.892Z,67.44
2022-12-17T22:44:51.859Z,67.22
2022-12-17T22:47:52.155Z,67.41
2022-12-17T22:51:06.562Z,67.17
2022-12-17T22:54:13.416Z,67.71
2022-12-17T22:57:35.942Z,68.02
2022-12-17T23:00:38.196Z,65.83
2022-12-17T23:03:41.693Z,66.90
2022-12-17T23:06:45.860Z,67.13
2022-12-17T23:09:47.929Z,67.33
2022-12-17T23:12:54.361Z,66.11
2022-12-17T23:15:56.560Z,66.12
2022-12-17T23:19:02.328Z,65.59
2022-12-17T23:22:04.411Z,66.19
2022-12-17T23:25:07.120Z,64.96
2022-12-17T23:28:09.187Z,65.66
2022-12-17T23:31:14.615Z,65.18
2022-12-17T23:34:16.737Z,65.60
2022-12-17T23:37:18.846Z,65.35
2022-12-17T23:40:21.532Z,65.08
2022-12-17T23:43:23.618Z,65.09
2022-12-17T23:46:29.938Z,64.49
2022-12-17T23:49:32.574Z,63.91
2022-12-17T23:52:38.363Z,63.64
2022-12-17T23:55:40.494Z,63.96
2022-12-17T23:58:43.986Z,64.23
